Broken Bow, OK (74728)

12:54 PM CDT on July 28, 2017 (GMT -0500)
Oakhill | | Change Station

Elev 397 ft 34.06 °N, 94.86 °W | Updated 55 seconds ago

Mostly Cloudy
Mostly Cloudy
85.1 °F
Feels Like 98 °F
N
1.7
Wind Variable Wind from ESE

Today
High -- | Low -- °F
--% Chance of Precip.
Yesterday
High -- | Low -- °F
Precip. -- in
Pressure 29.92 in
Visibility 10.0 miles
Clouds Clear
Heat Index 98 °F
Dew Point 79 °F
Humidity 82%
Rainfall 0.05 in
Snow Depth Not available.
6:27 AM 8:22 PM
Waxing Crescent, 32% visible
METAR K4O4 281735Z AUTO 17008KT 10SM CLR 31/22 A2992 RMK AO2
Pressure 29.92 in
Visibility 10.0 miles
Clouds Clear
Heat Index 98 °F
Dew Point 79 °F
Humidity 82%
Rainfall 0.05 in
Snow Depth Not available.
6:27 AM 8:22 PM
Waxing Crescent, 32% visible
METAR K4O4 281735Z AUTO 17008KT 10SM CLR 31/22 A2992 RMK AO2

Get Severe Weather Alerts

Thanks for signing up!

Be on the lookout for a verification email in your inbox.

You'll start receiving the daily forecast at 6 AM.

×

10-Day Weather Forecast

Almanac

Astronomy

Jul. 28, 2017 Rise Set
Actual Time
Civil Twilight
Nautical Twilight
Astronomical Twilight
Moon
Length of Visible Light
Length of Day
Tomorrow will be .
, % of the Moon is Illuminated

Today's Extremes

State Highs State Lows

Community

WunderPhotos

Category 6

Welcome to Category 6. This is the collective home for Weather Underground's featured writeups by Dr. Jeff Masters (right), Bob Henson (left), Chris Burt, and other regular contributors.

Nearby

Air Quality

  Air Quality AQ Index Pollutant
Not available.

Snow Depth

Station Depth Elevation

Earthquake Activity

City Distance Mag. Time & Date
Minimum magnitude displayed is 2.5.

Coastal Water Temperatures

Place Temperature

Stations

Nearby Weather Stations

Station Location Temp. Windchill Dew Point Humidity Wind Precip. Elev Updated Type
                   

Watches & Warnings

There are currently no watches in effect.